createdAt,value
2019-05-23T00:00:49.142Z,26.07
2019-05-23T00:03:57.180Z,29.60
2019-05-23T00:06:45.872Z,34.40
2019-05-23T00:09:33.649Z,30.43
2019-05-23T00:12:21.940Z,25.17
2019-05-23T00:14:57.672Z,28.00
2019-05-23T00:17:29.768Z,27.15
2019-05-23T00:20:01.529Z,21.07
2019-05-23T00:22:32.324Z,24.43
2019-05-23T00:25:04.097Z,24.20
2019-05-23T00:27:36.896Z,25.12
2019-05-23T00:30:09.769Z,25.12
2019-05-23T00:32:47.029Z,32.15
2019-05-23T00:35:17.629Z,29.95
2019-05-23T00:37:48.894Z,24.37
2019-05-23T00:42:50.433Z,24.00
2019-05-23T00:45:22.314Z,27.65
2019-05-23T00:47:53.163Z,25.62
2019-05-23T00:50:26.282Z,24.00
2019-05-23T00:52:57.677Z,24.80
2019-05-23T00:57:58.754Z,33.48
2019-05-23T01:00:30.234Z,30.12
2019-05-23T01:05:31.299Z,34.70
2019-05-23T01:08:01.718Z,30.57
2019-05-23T01:10:33.532Z,32.58
2019-05-23T01:13:06.234Z,40.55
2019-05-23T01:15:40.521Z,38.13
2019-05-23T01:18:11.922Z,46.75
2019-05-23T01:23:25.256Z,47.85
2019-05-23T01:25:56.077Z,41.42
2019-05-23T01:28:26.833Z,44.33
2019-05-23T01:31:16.877Z,42.83
2019-05-23T01:33:49.897Z,52.03
2019-05-23T01:36:20.674Z,47.35
2019-05-23T01:38:51.501Z,40.90
2019-05-23T01:41:22.877Z,54.63
2019-05-23T01:46:24.325Z,47.98
2019-05-23T01:48:54.845Z,43.33
2019-05-23T01:51:25.124Z,45.52
2019-05-23T01:53:55.401Z,41.85
2019-05-23T01:56:25.814Z,39.58
2019-05-23T01:58:56.485Z,38.30
2019-05-23T02:01:27.000Z,42.35
2019-05-23T02:03:57.960Z,44.17
2019-05-23T02:06:28.824Z,47.83
2019-05-23T02:09:04.515Z,41.55
2019-05-23T02:11:35.512Z,41.48
2019-05-23T02:14:07.682Z,34.92
2019-05-23T02:16:39.647Z,32.58
2019-05-23T02:19:13.639Z,34.67
2019-05-23T02:21:46.307Z,33.50
2019-05-23T02:24:17.241Z,27.02
2019-05-23T02:26:48.590Z,25.40
2019-05-23T02:29:20.517Z,25.10
2019-05-23T02:31:50.794Z,30.50
2019-05-23T02:34:21.183Z,26.33
2019-05-23T02:36:51.906Z,24.92
2019-05-23T02:39:32.937Z,21.77
2019-05-23T02:42:04.965Z,28.17
2019-05-23T02:44:35.748Z,27.15
2019-05-23T02:47:13.851Z,27.90
2019-05-23T02:49:47.900Z,22.02
2019-05-23T02:52:37.594Z,25.32
2019-05-23T02:55:13.646Z,23.22
2019-05-23T02:57:47.134Z,24.00
2019-05-23T03:00:54.265Z,17.95
2019-05-23T03:03:21.866Z,22.42
2019-05-23T03:05:52.436Z,22.77
2019-05-23T03:08:24.450Z,23.18
2019-05-23T03:11:08.325Z,22.48
2019-05-23T03:13:40.809Z,21.70
2019-05-23T03:16:16.567Z,24.72
2019-05-23T03:18:50.464Z,23.87
2019-05-23T03:21:21.234Z,22.27
2019-05-23T03:23:51.925Z,23.07
2019-05-23T03:26:34.823Z,23.25
2019-05-23T03:29:06.188Z,21.68
2019-05-23T03:34:08.912Z,25.10
2019-05-23T03:36:39.192Z,21.93
2019-05-23T03:39:11.380Z,20.25
2019-05-23T03:41:41.658Z,21.40
2019-05-23T03:44:13.761Z,25.97
2019-05-23T03:46:45.628Z,21.57
2019-05-23T03:49:16.301Z,18.35
2019-05-23T03:51:46.900Z,22.98
2019-05-23T03:54:18.261Z,18.02
2019-05-23T03:59:18.793Z,19.80
2019-05-23T04:01:51.801Z,22.15
2019-05-23T04:04:24.260Z,20.35
2019-05-23T04:06:55.320Z,21.87
2019-05-23T04:09:25.650Z,20.12
2019-05-23T04:11:56.676Z,21.33
2019-05-23T04:14:27.838Z,31.23
2019-05-23T04:16:58.535Z,18.73
2019-05-23T04:19:28.935Z,19.10
2019-05-23T04:21:59.437Z,19.20
2019-05-23T04:24:29.841Z,24.50
2019-05-23T04:27:00.229Z,19.60
2019-05-23T04:29:30.520Z,19.10
2019-05-23T04:32:07.793Z,19.05
2019-05-23T04:34:32.816Z,21.25
2019-05-23T04:37:03.284Z,21.17
2019-05-23T04:39:34.676Z,22.40
2019-05-23T04:44:35.888Z,23.87
2019-05-23T04:47:06.700Z,19.87
2019-05-23T04:49:37.748Z,19.52
2019-05-23T04:52:09.247Z,28.02
2019-05-23T04:54:39.709Z,20.75
2019-05-23T04:57:10.104Z,27.50
2019-05-23T04:59:40.872Z,21.17
2019-05-23T05:02:25.579Z,18.60
2019-05-23T05:04:44.903Z,30.05
2019-05-23T05:07:15.638Z,19.67
2019-05-23T05:09:46.388Z,18.45
2019-05-23T05:12:17.555Z,21.68
2019-05-23T05:14:48.564Z,22.67
2019-05-23T05:17:18.937Z,26.85
2019-05-23T05:19:49.434Z,28.97
2019-05-23T05:22:20.210Z,25.95
2019-05-23T05:24:50.508Z,24.82
2019-05-23T05:27:20.779Z,24.82
2019-05-23T05:29:52.094Z,27.85
2019-05-23T05:32:23.157Z,29.82
2019-05-23T05:34:53.660Z,29.23
2019-05-23T05:37:23.927Z,33.80
2019-05-23T05:39:54.535Z,32.90
2019-05-23T05:42:24.784Z,38.42
2019-05-23T05:44:55.196Z,30.10
2019-05-23T05:47:25.560Z,33.70
2019-05-23T05:49:55.855Z,31.87
2019-05-23T05:52:26.352Z,27.48
2019-05-23T05:54:56.620Z,31.20
2019-05-23T05:59:57.344Z,30.02
2019-05-23T06:02:27.943Z,33.55
2019-05-23T06:04:58.279Z,31.23
2019-05-23T06:07:32.773Z,32.45
2019-05-23T06:10:03.681Z,30.62
2019-05-23T06:12:33.994Z,32.10
2019-05-23T06:15:06.718Z,31.80
2019-05-23T06:17:37.016Z,29.27
2019-05-23T06:20:07.630Z,38.15
2019-05-23T06:22:38.541Z,27.82
2019-05-23T06:25:10.333Z,31.50
2019-05-23T06:27:40.944Z,32.40
2019-05-23T06:30:13.752Z,30.12
2019-05-23T06:32:44.042Z,30.43
2019-05-23T06:35:14.504Z,25.48
2019-05-23T06:37:45.477Z,33.40
2019-05-23T06:40:16.577Z,26.40
2019-05-23T06:42:50.499Z,23.47
2019-05-23T06:45:19.704Z,27.25
2019-05-23T06:47:50.105Z,31.02
2019-05-23T06:50:21.691Z,35.78
2019-05-23T06:52:52.093Z,28.75
2019-05-23T06:55:22.356Z,29.77
2019-05-23T06:57:52.957Z,28.50
2019-05-23T07:00:25.396Z,34.23
2019-05-23T07:02:55.675Z,32.88
2019-05-23T07:05:35.608Z,36.20
2019-05-23T07:08:07.786Z,37.93
2019-05-23T07:10:40.172Z,30.65
2019-05-23T07:13:10.488Z,38.90
2019-05-23T07:15:40.872Z,38.80
2019-05-23T07:18:11.148Z,40.98
2019-05-23T07:20:41.443Z,38.53
2019-05-23T07:23:12.625Z,37.78
2019-05-23T07:25:42.929Z,40.00
2019-05-23T07:28:13.200Z,38.90
2019-05-23T07:30:43.514Z,35.80
2019-05-23T07:33:14.413Z,35.92
2019-05-23T07:35:44.737Z,37.75
2019-05-23T07:38:15.129Z,36.35
2019-05-23T07:40:45.837Z,34.13
2019-05-23T07:43:16.574Z,32.15
2019-05-23T07:45:57.590Z,36.70
2019-05-23T07:48:28.956Z,32.80
2019-05-23T07:51:00.246Z,36.63
2019-05-23T07:53:47.147Z,28.80
2019-05-23T07:56:25.152Z,29.02
2019-05-23T07:58:55.549Z,26.82
2019-05-23T08:01:27.490Z,26.20
2019-05-23T08:03:58.806Z,25.27
2019-05-23T08:08:58.937Z,19.07
2019-05-23T08:11:29.206Z,23.10
2019-05-23T08:14:00.305Z,21.55
2019-05-23T08:16:30.803Z,17.00
2019-05-23T08:19:01.083Z,18.37
2019-05-23T08:21:31.239Z,21.75
2019-05-23T08:24:01.534Z,15.80
2019-05-23T08:26:32.352Z,17.48
2019-05-23T08:29:24.674Z,15.48
2019-05-23T08:31:34.413Z,16.90
2019-05-23T08:34:06.291Z,16.52
2019-05-23T08:36:36.475Z,15.53
2019-05-23T08:39:08.706Z,18.85
2019-05-23T08:41:40.517Z,13.40
2019-05-23T08:44:11.677Z,15.60
2019-05-23T08:46:42.133Z,13.25
2019-05-23T08:49:12.516Z,20.45
2019-05-23T08:51:42.649Z,14.40
2019-05-23T08:54:12.767Z,13.83
2019-05-23T08:56:42.916Z,19.85
2019-05-23T08:59:13.669Z,10.48
2019-05-23T09:01:44.089Z,11.48
2019-05-23T09:04:15.034Z,10.40
2019-05-23T09:06:45.418Z,13.13
2019-05-23T09:09:29.172Z,13.57
2019-05-23T09:11:48.007Z,8.85
2019-05-23T09:14:18.052Z,11.65
2019-05-23T09:16:48.895Z,10.45
2019-05-23T09:19:19.160Z,10.10
2019-05-23T09:21:49.176Z,13.22
2019-05-23T09:24:19.376Z,12.43
2019-05-23T09:26:49.519Z,11.18
2019-05-23T09:29:19.902Z,8.95
2019-05-23T09:31:50.063Z,13.03
2019-05-23T09:34:20.625Z,9.20
2019-05-23T09:36:50.720Z,11.63
2019-05-23T09:39:22.363Z,13.15
2019-05-23T09:41:52.680Z,9.05
2019-05-23T09:44:22.886Z,11.88
2019-05-23T09:46:53.190Z,11.78
2019-05-23T09:49:23.761Z,9.48
2019-05-23T09:51:58.100Z,12.03
2019-05-23T09:54:25.637Z,12.13
2019-05-23T09:56:56.011Z,14.53
2019-05-23T09:59:26.184Z,16.17
2019-05-23T10:01:57.082Z,12.03
2019-05-23T10:04:27.076Z,14.98
2019-05-23T10:06:57.401Z,12.13
2019-05-23T10:09:27.614Z,14.60
2019-05-23T10:11:58.065Z,14.65
2019-05-23T10:14:29.809Z,15.00
2019-05-23T10:16:59.928Z,15.30
2019-05-23T10:19:29.989Z,12.10
2019-05-23T10:22:00.265Z,15.32
2019-05-23T10:27:00.419Z,17.60
2019-05-23T10:29:30.640Z,13.15
2019-05-23T10:32:00.911Z,12.95
2019-05-23T10:34:32.128Z,13.05
2019-05-23T10:37:02.240Z,14.35
2019-05-23T10:39:32.432Z,13.03
2019-05-23T10:42:02.804Z,11.95
2019-05-23T10:44:32.831Z,15.27
2019-05-23T10:47:03.023Z,17.20
2019-05-23T10:49:33.108Z,17.87
2019-05-23T10:52:03.220Z,17.05
2019-05-23T10:54:33.447Z,19.50
2019-05-23T10:57:03.532Z,17.62
2019-05-23T10:59:33.655Z,16.17
2019-05-23T11:02:04.035Z,16.07
2019-05-23T11:04:35.073Z,18.48
2019-05-23T11:07:05.553Z,21.87
2019-05-23T11:09:38.295Z,21.52
2019-05-23T11:12:08.749Z,16.25
2019-05-23T11:14:39.478Z,21.80
2019-05-23T11:17:09.927Z,21.25
2019-05-23T11:19:40.239Z,18.07
2019-05-23T11:22:11.133Z,16.77
2019-05-23T11:24:41.288Z,22.65
2019-05-23T11:27:11.408Z,17.67
2019-05-23T11:29:41.694Z,16.20
2019-05-23T11:32:12.484Z,15.97
2019-05-23T11:34:42.564Z,21.12
2019-05-23T11:37:12.692Z,19.30
2019-05-23T11:39:49.872Z,19.35
2019-05-23T11:42:15.516Z,14.78
2019-05-23T11:44:45.463Z,18.65
2019-05-23T11:47:15.598Z,16.52
2019-05-23T11:49:46.766Z,16.97
2019-05-23T11:54:47.450Z,14.07
2019-05-23T12:03:47.053Z,15.55
2019-05-23T12:09:23.656Z,16.48
2019-05-23T12:11:54.009Z,21.30
2019-05-23T12:14:32.592Z,14.37
2019-05-23T12:17:02.789Z,35.30
2019-05-23T12:19:47.702Z,13.62
2019-05-23T12:22:25.436Z,17.77
2019-05-23T12:24:57.414Z,14.05
2019-05-23T12:27:29.070Z,16.45
2019-05-23T12:30:10.095Z,13.35
2019-05-23T12:32:41.641Z,10.90
2019-05-23T12:35:17.044Z,13.80
2019-05-23T12:37:48.918Z,14.50
2019-05-23T12:40:23.336Z,12.73
2019-05-23T12:42:53.473Z,12.40
2019-05-23T12:45:25.205Z,10.80
2019-05-23T12:48:16.693Z,12.80
2019-05-23T12:50:53.829Z,11.75
2019-05-23T12:53:24.718Z,10.55
2019-05-23T12:55:55.445Z,13.83
2019-05-23T12:58:25.692Z,12.68
2019-05-23T13:00:57.424Z,16.53
2019-05-23T13:03:28.204Z,11.85
2019-05-23T13:05:58.629Z,14.00
2019-05-23T13:08:29.307Z,14.20
2019-05-23T13:10:59.385Z,10.40
2019-05-23T13:13:29.425Z,12.28
2019-05-23T13:15:59.612Z,11.88
2019-05-23T13:18:29.724Z,22.07
2019-05-23T13:20:59.937Z,15.32
2019-05-23T13:23:30.106Z,13.95
2019-05-23T13:26:00.089Z,16.52
2019-05-23T13:28:30.280Z,17.20
2019-05-23T13:31:00.423Z,13.83
2019-05-23T13:33:30.450Z,16.23
2019-05-23T13:36:00.596Z,14.07
2019-05-23T13:38:30.906Z,16.42
2019-05-23T13:41:00.983Z,16.03
2019-05-23T13:43:31.430Z,13.05
2019-05-23T13:46:01.488Z,15.13
2019-05-23T13:48:31.936Z,12.15
2019-05-23T13:51:02.168Z,14.00
2019-05-23T13:53:32.560Z,14.45
2019-05-23T13:56:02.777Z,14.47
2019-05-23T13:58:33.021Z,9.28
2019-05-23T14:01:08.564Z,13.00
2019-05-23T14:03:35.506Z,8.43
2019-05-23T14:06:07.255Z,13.50
2019-05-23T14:08:37.269Z,14.35
2019-05-23T14:11:07.909Z,12.47
2019-05-23T14:13:37.971Z,13.75
2019-05-23T14:16:09.399Z,10.72
2019-05-23T14:18:40.114Z,13.68
2019-05-23T14:21:10.509Z,21.90
2019-05-23T14:23:40.583Z,18.30
2019-05-23T14:26:11.399Z,11.53
2019-05-23T14:31:15.456Z,12.00
2019-05-23T14:33:49.894Z,7.80
2019-05-23T14:36:21.755Z,7.45
2019-05-23T14:38:53.565Z,8.68
2019-05-23T14:41:23.617Z,9.50
2019-05-23T14:43:53.615Z,10.40
2019-05-23T14:46:25.299Z,9.08
2019-05-23T14:49:00.436Z,8.53
2019-05-23T14:51:32.094Z,10.20
2019-05-23T14:54:22.052Z,9.73
2019-05-23T14:56:52.126Z,10.15
2019-05-23T14:59:23.805Z,6.78
2019-05-23T15:01:54.647Z,7.80
2019-05-23T15:04:25.647Z,7.55
2019-05-23T15:06:55.654Z,7.70
2019-05-23T15:09:26.256Z,15.75
2019-05-23T15:11:56.625Z,6.95
2019-05-23T15:14:26.633Z,9.20
2019-05-23T15:16:56.680Z,4.92
2019-05-23T15:19:40.383Z,9.78
2019-05-23T15:21:58.420Z,6.15
2019-05-23T15:24:28.984Z,6.83
2019-05-23T15:26:59.021Z,11.18
2019-05-23T15:29:29.520Z,9.23
2019-05-23T15:32:02.797Z,11.03
2019-05-23T15:34:34.690Z,6.10
2019-05-23T15:37:02.936Z,5.25
2019-05-23T15:39:33.012Z,9.68
2019-05-23T15:42:03.348Z,6.12
2019-05-23T15:44:33.478Z,6.33
2019-05-23T15:47:03.627Z,6.05
2019-05-23T15:49:34.064Z,5.72
2019-05-23T15:52:06.004Z,7.53
2019-05-23T15:54:53.383Z,8.25
2019-05-23T15:57:27.901Z,5.80
2019-05-23T16:03:17.512Z,7.42
2019-05-23T16:05:47.791Z,6.37
2019-05-23T16:08:18.446Z,7.47
2019-05-23T16:13:18.320Z,8.00
2019-05-23T16:15:49.020Z,8.35
2019-05-23T16:20:49.324Z,5.20
2019-05-23T16:23:20.413Z,4.83
2019-05-23T16:25:53.640Z,14.07
2019-05-23T16:28:23.797Z,5.62
2019-05-23T16:30:53.885Z,7.70
2019-05-23T16:33:23.936Z,6.42
2019-05-23T16:35:57.503Z,6.75
2019-05-23T16:38:28.628Z,7.03
2019-05-23T16:40:59.069Z,4.72
2019-05-23T16:43:38.774Z,6.33
2019-05-23T16:46:10.517Z,9.55
2019-05-23T16:48:40.653Z,5.42
2019-05-23T16:51:15.014Z,4.58
2019-05-23T16:53:48.452Z,4.05
2019-05-23T16:56:22.935Z,3.98
2019-05-23T16:59:19.068Z,4.20
2019-05-23T17:02:10.994Z,6.87
2019-05-23T17:05:09.719Z,5.72
2019-05-23T17:07:46.946Z,7.15
2019-05-23T17:11:06.768Z,5.25
2019-05-23T17:21:04.750Z,5.78
2019-05-23T17:23:42.594Z,5.40
2019-05-23T17:26:16.466Z,7.22
2019-05-23T17:28:54.075Z,7.65
2019-05-23T17:31:37.844Z,5.35
2019-05-23T17:34:08.202Z,7.05
2019-05-23T17:37:06.492Z,4.17
2019-05-23T17:39:57.699Z,9.43
2019-05-23T17:42:42.932Z,13.32
2019-05-23T17:45:28.952Z,7.37
2019-05-23T17:51:01.204Z,7.60
2019-05-23T17:53:40.090Z,7.62
2019-05-23T17:56:49.593Z,8.40
2019-05-23T17:59:21.283Z,7.72
2019-05-23T18:01:51.939Z,13.48
2019-05-23T18:04:22.216Z,11.25
2019-05-23T18:06:52.763Z,7.47
2019-05-23T18:09:22.839Z,10.50
2019-05-23T18:11:55.451Z,7.53
2019-05-23T18:14:25.901Z,8.30
2019-05-23T18:16:57.268Z,9.28
2019-05-23T18:19:28.025Z,9.10
2019-05-23T18:21:58.584Z,8.73
2019-05-23T18:24:28.847Z,14.13
2019-05-23T18:27:00.244Z,17.87
2019-05-23T18:29:30.518Z,9.88
2019-05-23T18:32:00.665Z,10.70
2019-05-23T18:34:31.072Z,9.40
2019-05-23T18:37:01.411Z,11.73
2019-05-23T18:39:33.236Z,12.33
2019-05-23T18:42:03.384Z,12.03
2019-05-23T18:44:34.070Z,9.65
2019-05-23T18:47:05.875Z,9.63
2019-05-23T18:49:36.249Z,8.73
2019-05-23T18:52:06.608Z,13.53
2019-05-23T18:54:36.692Z,9.60
2019-05-23T19:10:56.823Z,10.68
2019-05-23T19:13:27.273Z,15.13
2019-05-23T19:26:14.492Z,13.18
2019-05-23T19:28:45.883Z,11.67
2019-05-23T19:33:47.166Z,11.80
2019-05-23T19:36:19.200Z,14.35
2019-05-23T19:38:49.504Z,12.37
2019-05-23T19:41:36.343Z,14.10
2019-05-23T19:44:26.813Z,15.38
2019-05-23T19:57:38.472Z,16.80
2019-05-23T20:00:11.247Z,24.27
2019-05-23T20:02:52.065Z,34.50
2019-05-23T20:05:39.915Z,30.27
2019-05-23T20:08:10.548Z,37.90
2019-05-23T20:10:41.155Z,24.55
2019-05-23T20:13:11.387Z,23.35
2019-05-23T20:15:45.332Z,23.50
2019-05-23T20:18:13.365Z,31.45
2019-05-23T20:20:43.558Z,21.07
2019-05-23T20:23:16.074Z,20.95
2019-05-23T20:25:46.208Z,19.30
2019-05-23T20:28:16.626Z,17.23
2019-05-23T20:30:52.840Z,20.23
2019-05-23T20:33:23.263Z,18.57
2019-05-23T20:35:53.340Z,15.07
2019-05-23T20:38:24.630Z,15.25
2019-05-23T20:43:24.061Z,17.67
2019-05-23T20:45:54.410Z,12.65
2019-05-23T20:48:25.088Z,16.55
2019-05-23T20:50:56.104Z,12.75
2019-05-23T20:53:26.367Z,16.55
2019-05-23T20:55:56.482Z,16.87
2019-05-23T20:58:26.644Z,11.20
2019-05-23T21:01:16.210Z,11.78
2019-05-23T21:03:45.547Z,11.25
2019-05-23T21:06:15.734Z,12.33
2019-05-23T21:08:45.788Z,14.40
2019-05-23T21:11:15.754Z,12.98
2019-05-23T21:13:46.869Z,14.00
2019-05-23T21:16:17.094Z,10.48
2019-05-23T21:18:49.730Z,12.60
2019-05-23T21:21:18.994Z,13.95
2019-05-23T21:23:49.252Z,14.07
2019-05-23T21:26:19.446Z,10.85
2019-05-23T21:28:49.694Z,15.72
2019-05-23T21:31:21.469Z,12.82
2019-05-23T21:33:51.554Z,14.18
2019-05-23T21:36:21.662Z,11.95
2019-05-23T21:38:51.894Z,15.85
2019-05-23T21:41:22.910Z,15.80
2019-05-23T21:43:54.703Z,14.83
2019-05-23T21:46:24.928Z,11.43
2019-05-23T21:48:55.171Z,12.98
2019-05-23T21:51:25.283Z,14.75
2019-05-23T21:53:55.415Z,15.65
2019-05-23T21:56:25.546Z,16.15
2019-05-23T21:58:55.634Z,13.50
2019-05-23T22:01:27.980Z,17.77
2019-05-23T22:04:05.553Z,16.77
2019-05-23T22:06:44.198Z,15.35
2019-05-23T22:09:14.422Z,12.53
2019-05-23T22:11:44.636Z,13.55
2019-05-23T22:14:14.955Z,15.05
2019-05-23T22:16:45.133Z,13.48
2019-05-23T22:19:16.892Z,16.17
2019-05-23T22:21:47.027Z,14.18
2019-05-23T22:24:17.576Z,17.85
2019-05-23T22:26:47.805Z,18.87
2019-05-23T22:29:17.818Z,17.57
2019-05-23T22:31:47.871Z,13.88
2019-05-23T22:34:31.303Z,14.58
2019-05-23T22:37:01.696Z,15.48
2019-05-23T22:39:31.764Z,17.35
2019-05-23T22:42:02.075Z,16.57
2019-05-23T22:44:32.225Z,18.82
2019-05-23T22:47:03.388Z,14.03
2019-05-23T22:49:33.512Z,18.32
2019-05-23T22:52:04.199Z,15.08
2019-05-23T22:54:34.337Z,15.38
2019-05-23T22:57:23.688Z,14.30
2019-05-23T22:59:53.807Z,14.70
2019-05-23T23:02:24.859Z,21.37
2019-05-23T23:04:54.915Z,13.32
2019-05-23T23:07:25.210Z,17.17
2019-05-23T23:09:55.252Z,15.72
2019-05-23T23:12:25.563Z,17.77
2019-05-23T23:14:55.686Z,15.58
2019-05-23T23:17:25.867Z,16.82
2019-05-23T23:19:55.911Z,22.27
2019-05-23T23:22:25.935Z,19.25
2019-05-23T23:24:56.155Z,19.62
2019-05-23T23:27:26.307Z,17.30
2019-05-23T23:29:56.423Z,23.50
2019-05-23T23:32:26.586Z,24.98
2019-05-23T23:34:56.695Z,23.83
2019-05-23T23:37:27.175Z,21.85
2019-05-23T23:39:57.224Z,27.37
2019-05-23T23:42:27.273Z,24.67
2019-05-23T23:45:15.264Z,22.13
2019-05-23T23:48:02.927Z,23.35
2019-05-23T23:50:50.900Z,24.77
2019-05-23T23:53:39.455Z,17.15
2019-05-23T23:56:27.675Z,19.85
2019-05-23T23:58:57.031Z,23.70
